sensor_id;sensor_type;location;lat;lon;timestamp;P1;durP1;ratioP1;P2;durP2;ratioP2
5010;SDS011;2524;54.364;10.072;2023-02-21T00:00:37;5.37;;;1.90;;
5010;SDS011;2524;54.364;10.072;2023-02-21T00:03:21;6.43;;;1.93;;
5010;SDS011;2524;54.364;10.072;2023-02-21T00:06:07;4.63;;;2.20;;
5010;SDS011;2524;54.364;10.072;2023-02-21T00:08:51;7.33;;;2.10;;
5010;SDS011;2524;54.364;10.072;2023-02-21T00:11:39;9.50;;;2.27;;
5010;SDS011;2524;54.364;10.072;2023-02-21T00:14:24;3.00;;;1.70;;
5010;SDS011;2524;54.364;10.072;2023-02-21T00:17:09;4.93;;;1.90;;
5010;SDS011;2524;54.364;10.072;2023-02-21T00:19:53;4.43;;;1.60;;
5010;SDS011;2524;54.364;10.072;2023-02-21T00:22:37;4.87;;;2.13;;
5010;SDS011;2524;54.364;10.072;2023-02-21T00:25:21;6.30;;;2.10;;
5010;SDS011;2524;54.364;10.072;2023-02-21T00:28:05;5.00;;;1.63;;
5010;SDS011;2524;54.364;10.072;2023-02-21T00:30:49;5.53;;;1.97;;
5010;SDS011;2524;54.364;10.072;2023-02-21T00:33:36;9.93;;;2.97;;
5010;SDS011;2524;54.364;10.072;2023-02-21T00:36:20;5.00;;;1.70;;
5010;SDS011;2524;54.364;10.072;2023-02-21T00:39:04;8.07;;;2.57;;
5010;SDS011;2524;54.364;10.072;2023-02-21T00:41:48;5.87;;;2.10;;
5010;SDS011;2524;54.364;10.072;2023-02-21T00:44:32;7.03;;;1.80;;
5010;SDS011;2524;54.364;10.072;2023-02-21T00:47:17;3.90;;;1.97;;
5010;SDS011;2524;54.364;10.072;2023-02-21T00:50:01;5.00;;;2.03;;
5010;SDS011;2524;54.364;10.072;2023-02-21T00:52:45;4.63;;;2.20;;
5010;SDS011;2524;54.364;10.072;2023-02-21T00:55:29;9.53;;;2.50;;
5010;SDS011;2524;54.364;10.072;2023-02-21T00:58:13;6.80;;;2.17;;
5010;SDS011;2524;54.364;10.072;2023-02-21T01:00:57;6.73;;;2.20;;
5010;SDS011;2524;54.364;10.072;2023-02-21T01:03:41;7.90;;;2.07;;
5010;SDS011;2524;54.364;10.072;2023-02-21T01:06:25;9.20;;;2.57;;
5010;SDS011;2524;54.364;10.072;2023-02-21T01:09:09;9.70;;;2.60;;
5010;SDS011;2524;54.364;10.072;2023-02-21T01:11:54;6.77;;;2.20;;
5010;SDS011;2524;54.364;10.072;2023-02-21T01:14:38;6.03;;;2.03;;
5010;SDS011;2524;54.364;10.072;2023-02-21T01:17:22;13.43;;;2.33;;
5010;SDS011;2524;54.364;10.072;2023-02-21T01:20:06;8.13;;;2.40;;
5010;SDS011;2524;54.364;10.072;2023-02-21T01:22:50;12.20;;;3.50;;
5010;SDS011;2524;54.364;10.072;2023-02-21T01:25:34;5.13;;;1.97;;
5010;SDS011;2524;54.364;10.072;2023-02-21T01:28:18;3.70;;;1.73;;
5010;SDS011;2524;54.364;10.072;2023-02-21T01:31:03;5.20;;;2.00;;
5010;SDS011;2524;54.364;10.072;2023-02-21T01:33:47;10.83;;;3.00;;
5010;SDS011;2524;54.364;10.072;2023-02-21T01:36:31;18.53;;;4.10;;
5010;SDS011;2524;54.364;10.072;2023-02-21T01:39:16;10.37;;;2.83;;
5010;SDS011;2524;54.364;10.072;2023-02-21T01:42:00;10.40;;;2.80;;
5010;SDS011;2524;54.364;10.072;2023-02-21T01:44:45;9.40;;;2.57;;
5010;SDS011;2524;54.364;10.072;2023-02-21T01:47:31;6.33;;;2.50;;
5010;SDS011;2524;54.364;10.072;2023-02-21T01:50:22;18.40;;;3.77;;
5010;SDS011;2524;54.364;10.072;2023-02-21T01:53:13;6.90;;;2.70;;
5010;SDS011;2524;54.364;10.072;2023-02-21T01:56:00;11.00;;;2.70;;
5010;SDS011;2524;54.364;10.072;2023-02-21T01:58:45;7.00;;;2.70;;
5010;SDS011;2524;54.364;10.072;2023-02-21T02:01:50;5.07;;;2.13;;
5010;SDS011;2524;54.364;10.072;2023-02-21T02:04:37;10.07;;;3.20;;
5010;SDS011;2524;54.364;10.072;2023-02-21T02:07:23;5.70;;;2.70;;
5010;SDS011;2524;54.364;10.072;2023-02-21T02:10:07;7.47;;;3.10;;
5010;SDS011;2524;54.364;10.072;2023-02-21T02:20:43;12.87;;;3.40;;
5010;SDS011;2524;54.364;10.072;2023-02-21T02:29:09;13.20;;;3.57;;
5010;SDS011;2524;54.364;10.072;2023-02-21T02:31:39;9.90;;;2.87;;
5010;SDS011;2524;54.364;10.072;2023-02-21T02:34:35;9.63;;;3.13;;
5010;SDS011;2524;54.364;10.072;2023-02-21T02:37:15;6.17;;;2.83;;
5010;SDS011;2524;54.364;10.072;2023-02-21T02:45:32;9.57;;;2.53;;
5010;SDS011;2524;54.364;10.072;2023-02-21T02:48:12;11.20;;;2.80;;
5010;SDS011;2524;54.364;10.072;2023-02-21T02:50:45;4.53;;;2.50;;
5010;SDS011;2524;54.364;10.072;2023-02-21T02:53:15;6.70;;;2.67;;
5010;SDS011;2524;54.364;10.072;2023-02-21T02:55:45;8.23;;;2.73;;
5010;SDS011;2524;54.364;10.072;2023-02-21T02:58:23;10.63;;;2.97;;
5010;SDS011;2524;54.364;10.072;2023-02-21T03:01:39;11.57;;;2.97;;
5010;SDS011;2524;54.364;10.072;2023-02-21T03:06:39;7.10;;;2.47;;
5010;SDS011;2524;54.364;10.072;2023-02-21T03:09:28;15.03;;;3.10;;
5010;SDS011;2524;54.364;10.072;2023-02-21T03:12:04;8.60;;;2.90;;
5010;SDS011;2524;54.364;10.072;2023-02-21T03:14:40;11.03;;;3.03;;
5010;SDS011;2524;54.364;10.072;2023-02-21T03:17:14;13.90;;;2.63;;
5010;SDS011;2524;54.364;10.072;2023-02-21T03:19:43;10.47;;;2.97;;
5010;SDS011;2524;54.364;10.072;2023-02-21T03:22:15;5.90;;;2.13;;
5010;SDS011;2524;54.364;10.072;2023-02-21T03:24:44;19.87;;;4.17;;
5010;SDS011;2524;54.364;10.072;2023-02-21T03:27:12;20.63;;;4.57;;
5010;SDS011;2524;54.364;10.072;2023-02-21T03:29:38;16.60;;;3.90;;
5010;SDS011;2524;54.364;10.072;2023-02-21T03:32:06;10.70;;;3.07;;
5010;SDS011;2524;54.364;10.072;2023-02-21T03:34:35;11.53;;;3.43;;
5010;SDS011;2524;54.364;10.072;2023-02-21T03:37:03;20.70;;;3.07;;
5010;SDS011;2524;54.364;10.072;2023-02-21T03:39:30;16.53;;;4.57;;
5010;SDS011;2524;54.364;10.072;2023-02-21T03:41:56;13.87;;;3.50;;
5010;SDS011;2524;54.364;10.072;2023-02-21T03:44:21;11.93;;;3.57;;
5010;SDS011;2524;54.364;10.072;2023-02-21T03:46:47;9.10;;;2.93;;
5010;SDS011;2524;54.364;10.072;2023-02-21T03:49:12;14.67;;;4.10;;
5010;SDS011;2524;54.364;10.072;2023-02-21T03:51:38;10.73;;;3.37;;
5010;SDS011;2524;54.364;10.072;2023-02-21T03:54:03;15.93;;;3.27;;
5010;SDS011;2524;54.364;10.072;2023-02-21T03:56:29;10.20;;;2.83;;
5010;SDS011;2524;54.364;10.072;2023-02-21T03:58:54;8.17;;;2.93;;
5010;SDS011;2524;54.364;10.072;2023-02-21T04:01:20;24.30;;;4.33;;
5010;SDS011;2524;54.364;10.072;2023-02-21T04:03:46;14.37;;;3.17;;
5010;SDS011;2524;54.364;10.072;2023-02-21T04:06:11;16.10;;;3.13;;
5010;SDS011;2524;54.364;10.072;2023-02-21T04:08:37;10.47;;;3.30;;
5010;SDS011;2524;54.364;10.072;2023-02-21T04:11:02;14.33;;;3.43;;
5010;SDS011;2524;54.364;10.072;2023-02-21T04:13:28;18.40;;;4.40;;
5010;SDS011;2524;54.364;10.072;2023-02-21T04:15:55;15.97;;;3.90;;
5010;SDS011;2524;54.364;10.072;2023-02-21T04:18:20;14.00;;;3.33;;
5010;SDS011;2524;54.364;10.072;2023-02-21T04:20:46;21.50;;;4.17;;
5010;SDS011;2524;54.364;10.072;2023-02-21T04:23:15;12.90;;;3.43;;
5010;SDS011;2524;54.364;10.072;2023-02-21T04:25:45;21.70;;;4.73;;
5010;SDS011;2524;54.364;10.072;2023-02-21T04:28:10;11.13;;;3.30;;
5010;SDS011;2524;54.364;10.072;2023-02-21T04:30:36;7.53;;;3.00;;
5010;SDS011;2524;54.364;10.072;2023-02-21T04:33:02;8.03;;;2.83;;
5010;SDS011;2524;54.364;10.072;2023-02-21T04:35:28;14.87;;;3.40;;
5010;SDS011;2524;54.364;10.072;2023-02-21T04:37:54;11.10;;;2.93;;
5010;SDS011;2524;54.364;10.072;2023-02-21T04:40:19;14.47;;;3.90;;
5010;SDS011;2524;54.364;10.072;2023-02-21T04:42:45;12.83;;;3.43;;
5010;SDS011;2524;54.364;10.072;2023-02-21T04:45:10;16.90;;;3.90;;
5010;SDS011;2524;54.364;10.072;2023-02-21T04:47:36;16.07;;;2.63;;
5010;SDS011;2524;54.364;10.072;2023-02-21T04:50:02;11.70;;;3.03;;
5010;SDS011;2524;54.364;10.072;2023-02-21T04:52:28;11.40;;;3.50;;
5010;SDS011;2524;54.364;10.072;2023-02-21T04:54:54;14.43;;;3.30;;
5010;SDS011;2524;54.364;10.072;2023-02-21T04:57:20;22.13;;;4.40;;
5010;SDS011;2524;54.364;10.072;2023-02-21T04:59:45;13.10;;;3.53;;
5010;SDS011;2524;54.364;10.072;2023-02-21T05:02:11;15.77;;;3.20;;
5010;SDS011;2524;54.364;10.072;2023-02-21T05:04:37;11.03;;;3.40;;
5010;SDS011;2524;54.364;10.072;2023-02-21T05:07:03;14.10;;;3.40;;
5010;SDS011;2524;54.364;10.072;2023-02-21T05:09:29;11.40;;;3.00;;
5010;SDS011;2524;54.364;10.072;2023-02-21T05:11:55;11.47;;;2.93;;
5010;SDS011;2524;54.364;10.072;2023-02-21T05:14:20;34.60;;;4.60;;
5010;SDS011;2524;54.364;10.072;2023-02-21T05:16:46;19.70;;;4.20;;
5010;SDS011;2524;54.364;10.072;2023-02-21T05:19:12;16.13;;;4.10;;
5010;SDS011;2524;54.364;10.072;2023-02-21T05:21:37;19.53;;;3.77;;
5010;SDS011;2524;54.364;10.072;2023-02-21T05:24:06;8.87;;;2.80;;
5010;SDS011;2524;54.364;10.072;2023-02-21T05:26:36;12.40;;;3.47;;
5010;SDS011;2524;54.364;10.072;2023-02-21T05:29:03;10.30;;;3.33;;
5010;SDS011;2524;54.364;10.072;2023-02-21T05:31:29;12.53;;;3.07;;
5010;SDS011;2524;54.364;10.072;2023-02-21T05:33:55;14.73;;;3.60;;
5010;SDS011;2524;54.364;10.072;2023-02-21T05:36:21;17.27;;;4.07;;
5010;SDS011;2524;54.364;10.072;2023-02-21T05:38:50;10.80;;;3.27;;
5010;SDS011;2524;54.364;10.072;2023-02-21T05:41:17;20.07;;;4.47;;
5010;SDS011;2524;54.364;10.072;2023-02-21T05:43:43;11.70;;;3.83;;
5010;SDS011;2524;54.364;10.072;2023-02-21T05:48:49;23.20;;;4.40;;
5010;SDS011;2524;54.364;10.072;2023-02-21T05:51:15;25.40;;;4.63;;
5010;SDS011;2524;54.364;10.072;2023-02-21T05:53:41;11.73;;;2.90;;
5010;SDS011;2524;54.364;10.072;2023-02-21T05:56:07;12.07;;;2.90;;
5010;SDS011;2524;54.364;10.072;2023-02-21T05:58:33;27.37;;;5.37;;
5010;SDS011;2524;54.364;10.072;2023-02-21T06:00:58;20.10;;;4.73;;
5010;SDS011;2524;54.364;10.072;2023-02-21T06:03:24;9.13;;;3.40;;
5010;SDS011;2524;54.364;10.072;2023-02-21T06:05:50;12.30;;;3.17;;
5010;SDS011;2524;54.364;10.072;2023-02-21T06:08:16;16.27;;;3.97;;
5010;SDS011;2524;54.364;10.072;2023-02-21T06:10:41;14.17;;;3.47;;
5010;SDS011;2524;54.364;10.072;2023-02-21T06:13:07;7.73;;;2.43;;
5010;SDS011;2524;54.364;10.072;2023-02-21T06:15:33;8.57;;;3.20;;
5010;SDS011;2524;54.364;10.072;2023-02-21T06:17:59;11.23;;;3.00;;
5010;SDS011;2524;54.364;10.072;2023-02-21T06:20:25;14.30;;;3.73;;
5010;SDS011;2524;54.364;10.072;2023-02-21T06:22:50;7.23;;;2.97;;
5010;SDS011;2524;54.364;10.072;2023-02-21T06:25:16;19.27;;;3.60;;
5010;SDS011;2524;54.364;10.072;2023-02-21T06:27:42;8.50;;;2.73;;
5010;SDS011;2524;54.364;10.072;2023-02-21T06:30:08;11.07;;;2.77;;
5010;SDS011;2524;54.364;10.072;2023-02-21T06:32:34;8.73;;;2.97;;
5010;SDS011;2524;54.364;10.072;2023-02-21T06:35:00;8.20;;;2.63;;
5010;SDS011;2524;54.364;10.072;2023-02-21T06:37:26;15.33;;;3.43;;
5010;SDS011;2524;54.364;10.072;2023-02-21T06:39:52;24.83;;;5.10;;
5010;SDS011;2524;54.364;10.072;2023-02-21T06:42:18;14.60;;;3.53;;
5010;SDS011;2524;54.364;10.072;2023-02-21T06:44:45;11.17;;;3.00;;
5010;SDS011;2524;54.364;10.072;2023-02-21T06:47:11;14.77;;;3.90;;
5010;SDS011;2524;54.364;10.072;2023-02-21T06:49:37;14.73;;;2.93;;
5010;SDS011;2524;54.364;10.072;2023-02-21T06:52:03;9.23;;;2.33;;
5010;SDS011;2524;54.364;10.072;2023-02-21T06:54:29;20.27;;;4.53;;
5010;SDS011;2524;54.364;10.072;2023-02-21T06:56:55;16.40;;;3.70;;
5010;SDS011;2524;54.364;10.072;2023-02-21T06:59:21;19.80;;;4.80;;
5010;SDS011;2524;54.364;10.072;2023-02-21T07:01:46;16.73;;;3.63;;
5010;SDS011;2524;54.364;10.072;2023-02-21T07:04:12;12.63;;;3.33;;
5010;SDS011;2524;54.364;10.072;2023-02-21T07:06:37;11.30;;;3.70;;
5010;SDS011;2524;54.364;10.072;2023-02-21T07:09:03;12.40;;;2.43;;
5010;SDS011;2524;54.364;10.072;2023-02-21T07:11:29;19.17;;;4.53;;
5010;SDS011;2524;54.364;10.072;2023-02-21T07:13:57;11.90;;;3.00;;
5010;SDS011;2524;54.364;10.072;2023-02-21T07:16:23;14.87;;;3.37;;
5010;SDS011;2524;54.364;10.072;2023-02-21T07:18:49;13.93;;;4.10;;
5010;SDS011;2524;54.364;10.072;2023-02-21T07:21:15;11.23;;;3.57;;
5010;SDS011;2524;54.364;10.072;2023-02-21T07:23:42;25.37;;;5.50;;
5010;SDS011;2524;54.364;10.072;2023-02-21T07:26:09;14.27;;;3.80;;
5010;SDS011;2524;54.364;10.072;2023-02-21T07:28:35;9.50;;;2.90;;
5010;SDS011;2524;54.364;10.072;2023-02-21T07:31:00;20.27;;;4.00;;
5010;SDS011;2524;54.364;10.072;2023-02-21T07:33:26;19.37;;;5.20;;
5010;SDS011;2524;54.364;10.072;2023-02-21T07:35:52;21.30;;;4.50;;
5010;SDS011;2524;54.364;10.072;2023-02-21T07:38:24;18.13;;;3.57;;
5010;SDS011;2524;54.364;10.072;2023-02-21T07:40:59;12.20;;;3.90;;
5010;SDS011;2524;54.364;10.072;2023-02-21T07:43:26;12.30;;;3.67;;
5010;SDS011;2524;54.364;10.072;2023-02-21T07:45:53;23.70;;;5.90;;
5010;SDS011;2524;54.364;10.072;2023-02-21T07:48:19;17.30;;;4.10;;
5010;SDS011;2524;54.364;10.072;2023-02-21T07:50:44;13.67;;;3.87;;
5010;SDS011;2524;54.364;10.072;2023-02-21T07:53:10;14.90;;;3.50;;
5010;SDS011;2524;54.364;10.072;2023-02-21T07:55:38;13.60;;;3.83;;
5010;SDS011;2524;54.364;10.072;2023-02-21T07:58:03;21.80;;;3.73;;
5010;SDS011;2524;54.364;10.072;2023-02-21T08:00:29;16.50;;;4.20;;
5010;SDS011;2524;54.364;10.072;2023-02-21T08:02:56;7.63;;;2.43;;
5010;SDS011;2524;54.364;10.072;2023-02-21T08:05:21;22.43;;;3.80;;
5010;SDS011;2524;54.364;10.072;2023-02-21T08:07:47;26.63;;;4.47;;
5010;SDS011;2524;54.364;10.072;2023-02-21T08:10:17;17.33;;;3.53;;
5010;SDS011;2524;54.364;10.072;2023-02-21T08:12:45;15.23;;;3.23;;
5010;SDS011;2524;54.364;10.072;2023-02-21T08:15:11;14.20;;;3.77;;
5010;SDS011;2524;54.364;10.072;2023-02-21T08:17:36;21.73;;;4.20;;
5010;SDS011;2524;54.364;10.072;2023-02-21T08:20:02;23.40;;;3.93;;
5010;SDS011;2524;54.364;10.072;2023-02-21T08:22:30;14.60;;;3.83;;
5010;SDS011;2524;54.364;10.072;2023-02-21T08:24:56;10.43;;;3.40;;
5010;SDS011;2524;54.364;10.072;2023-02-21T08:27:21;15.53;;;3.83;;
5010;SDS011;2524;54.364;10.072;2023-02-21T08:29:50;14.13;;;3.40;;
5010;SDS011;2524;54.364;10.072;2023-02-21T08:32:17;15.07;;;3.73;;
5010;SDS011;2524;54.364;10.072;2023-02-21T08:34:44;10.13;;;3.43;;
5010;SDS011;2524;54.364;10.072;2023-02-21T08:37:10;10.60;;;2.83;;
5010;SDS011;2524;54.364;10.072;2023-02-21T08:39:48;21.10;;;5.10;;
5010;SDS011;2524;54.364;10.072;2023-02-21T08:42:16;21.97;;;4.63;;
5010;SDS011;2524;54.364;10.072;2023-02-21T08:44:42;31.13;;;5.60;;
5010;SDS011;2524;54.364;10.072;2023-02-21T08:47:09;11.40;;;3.80;;
5010;SDS011;2524;54.364;10.072;2023-02-21T08:49:35;12.30;;;3.43;;
5010;SDS011;2524;54.364;10.072;2023-02-21T08:52:06;10.50;;;4.27;;
5010;SDS011;2524;54.364;10.072;2023-02-21T08:54:31;18.67;;;5.00;;
5010;SDS011;2524;54.364;10.072;2023-02-21T08:56:57;14.13;;;3.40;;
5010;SDS011;2524;54.364;10.072;2023-02-21T08:59:23;15.13;;;3.40;;
5010;SDS011;2524;54.364;10.072;2023-02-21T09:01:49;24.13;;;5.43;;
5010;SDS011;2524;54.364;10.072;2023-02-21T09:04:15;18.67;;;3.97;;
5010;SDS011;2524;54.364;10.072;2023-02-21T09:06:41;17.13;;;4.10;;
5010;SDS011;2524;54.364;10.072;2023-02-21T09:09:06;12.70;;;3.83;;
5010;SDS011;2524;54.364;10.072;2023-02-21T09:11:32;17.33;;;4.37;;
5010;SDS011;2524;54.364;10.072;2023-02-21T09:13:57;23.60;;;4.20;;
5010;SDS011;2524;54.364;10.072;2023-02-21T09:16:23;27.73;;;5.40;;
5010;SDS011;2524;54.364;10.072;2023-02-21T09:18:52;18.07;;;3.90;;
5010;SDS011;2524;54.364;10.072;2023-02-21T09:21:20;25.60;;;4.87;;
5010;SDS011;2524;54.364;10.072;2023-02-21T09:23:45;14.13;;;3.43;;
5010;SDS011;2524;54.364;10.072;2023-02-21T09:26:11;20.83;;;4.73;;
5010;SDS011;2524;54.364;10.072;2023-02-21T09:28:36;26.93;;;5.20;;
5010;SDS011;2524;54.364;10.072;2023-02-21T09:31:07;15.60;;;3.60;;
5010;SDS011;2524;54.364;10.072;2023-02-21T09:33:35;13.23;;;4.00;;
5010;SDS011;2524;54.364;10.072;2023-02-21T09:36:05;19.50;;;4.47;;
5010;SDS011;2524;54.364;10.072;2023-02-21T09:38:31;20.87;;;4.97;;
5010;SDS011;2524;54.364;10.072;2023-02-21T09:41:00;25.27;;;4.37;;
5010;SDS011;2524;54.364;10.072;2023-02-21T09:46:04;11.47;;;3.50;;
5010;SDS011;2524;54.364;10.072;2023-02-21T09:48:35;10.67;;;3.30;;
5010;SDS011;2524;54.364;10.072;2023-02-21T09:51:03;8.67;;;2.97;;
5010;SDS011;2524;54.364;10.072;2023-02-21T09:53:32;11.90;;;3.23;;
5010;SDS011;2524;54.364;10.072;2023-02-21T09:56:13;10.80;;;2.60;;
5010;SDS011;2524;54.364;10.072;2023-02-21T09:58:45;21.43;;;4.93;;
5010;SDS011;2524;54.364;10.072;2023-02-21T10:06:50;19.60;;;4.67;;
5010;SDS011;2524;54.364;10.072;2023-02-21T10:09:24;19.27;;;4.03;;
5010;SDS011;2524;54.364;10.072;2023-02-21T10:20:20;16.60;;;4.17;;
5010;SDS011;2524;54.364;10.072;2023-02-21T10:22:56;16.80;;;3.93;;
5010;SDS011;2524;54.364;10.072;2023-02-21T10:25:26;16.03;;;3.70;;
5010;SDS011;2524;54.364;10.072;2023-02-21T10:27:54;16.87;;;3.20;;
5010;SDS011;2524;54.364;10.072;2023-02-21T10:30:33;14.60;;;3.33;;
5010;SDS011;2524;54.364;10.072;2023-02-21T10:33:01;13.50;;;2.90;;
5010;SDS011;2524;54.364;10.072;2023-02-21T10:35:33;24.20;;;4.33;;
5010;SDS011;2524;54.364;10.072;2023-02-21T10:38:00;28.53;;;4.70;;
5010;SDS011;2524;54.364;10.072;2023-02-21T10:40:41;14.40;;;3.77;;
5010;SDS011;2524;54.364;10.072;2023-02-21T10:43:24;25.43;;;5.10;;
5010;SDS011;2524;54.364;10.072;2023-02-21T10:46:19;13.20;;;3.30;;
5010;SDS011;2524;54.364;10.072;2023-02-21T10:48:55;22.80;;;4.47;;
5010;SDS011;2524;54.364;10.072;2023-02-21T10:51:42;14.47;;;4.00;;
5010;SDS011;2524;54.364;10.072;2023-02-21T10:54:21;11.53;;;3.13;;
5010;SDS011;2524;54.364;10.072;2023-02-21T10:56:48;17.53;;;4.30;;
5010;SDS011;2524;54.364;10.072;2023-02-21T11:01:56;17.57;;;4.17;;
5010;SDS011;2524;54.364;10.072;2023-02-21T11:04:24;19.30;;;4.10;;
5010;SDS011;2524;54.364;10.072;2023-02-21T11:06:57;16.13;;;4.17;;
5010;SDS011;2524;54.364;10.072;2023-02-21T11:12:10;24.87;;;5.20;;
5010;SDS011;2524;54.364;10.072;2023-02-21T11:17:26;21.03;;;4.33;;
5010;SDS011;2524;54.364;10.072;2023-02-21T11:19:54;14.20;;;4.10;;
5010;SDS011;2524;54.364;10.072;2023-02-21T11:22:21;18.90;;;3.70;;
5010;SDS011;2524;54.364;10.072;2023-02-21T11:24:50;20.60;;;4.73;;
5010;SDS011;2524;54.364;10.072;2023-02-21T11:27:19;19.30;;;5.30;;
5010;SDS011;2524;54.364;10.072;2023-02-21T11:29:46;20.10;;;5.00;;
5010;SDS011;2524;54.364;10.072;2023-02-21T11:32:25;17.73;;;3.40;;
5010;SDS011;2524;54.364;10.072;2023-02-21T11:35:04;18.97;;;3.57;;
5010;SDS011;2524;54.364;10.072;2023-02-21T11:37:33;16.47;;;4.10;;
5010;SDS011;2524;54.364;10.072;2023-02-21T11:40:20;24.67;;;5.13;;
5010;SDS011;2524;54.364;10.072;2023-02-21T11:45:35;15.07;;;3.97;;
5010;SDS011;2524;54.364;10.072;2023-02-21T11:48:06;13.87;;;3.30;;
5010;SDS011;2524;54.364;10.072;2023-02-21T11:50:39;13.63;;;4.23;;
5010;SDS011;2524;54.364;10.072;2023-02-21T11:56:03;14.23;;;3.67;;
5010;SDS011;2524;54.364;10.072;2023-02-21T11:58:39;14.20;;;3.90;;
5010;SDS011;2524;54.364;10.072;2023-02-21T12:01:21;22.00;;;5.23;;
5010;SDS011;2524;54.364;10.072;2023-02-21T12:06:45;20.73;;;4.87;;
5010;SDS011;2524;54.364;10.072;2023-02-21T12:12:05;23.20;;;4.07;;
5010;SDS011;2524;54.364;10.072;2023-02-21T12:14:59;16.70;;;4.07;;
5010;SDS011;2524;54.364;10.072;2023-02-21T12:20:27;13.47;;;3.80;;
5010;SDS011;2524;54.364;10.072;2023-02-21T12:23:46;23.83;;;4.50;;
5010;SDS011;2524;54.364;10.072;2023-02-21T12:26:25;12.80;;;3.40;;
5010;SDS011;2524;54.364;10.072;2023-02-21T12:29:08;24.63;;;4.40;;
5010;SDS011;2524;54.364;10.072;2023-02-21T12:31:41;20.27;;;5.37;;
5010;SDS011;2524;54.364;10.072;2023-02-21T12:37:02;16.33;;;3.97;;
5010;SDS011;2524;54.364;10.072;2023-02-21T12:39:52;11.80;;;3.63;;
5010;SDS011;2524;54.364;10.072;2023-02-21T12:45:06;15.57;;;3.40;;
5010;SDS011;2524;54.364;10.072;2023-02-21T12:47:47;24.20;;;4.07;;
5010;SDS011;2524;54.364;10.072;2023-02-21T12:50:26;15.57;;;3.93;;
5010;SDS011;2524;54.364;10.072;2023-02-21T12:53:15;15.73;;;3.63;;
5010;SDS011;2524;54.364;10.072;2023-02-21T12:56:06;16.43;;;3.43;;
5010;SDS011;2524;54.364;10.072;2023-02-21T13:01:14;13.87;;;3.77;;
5010;SDS011;2524;54.364;10.072;2023-02-21T13:03:54;18.13;;;4.70;;
5010;SDS011;2524;54.364;10.072;2023-02-21T13:06:43;16.77;;;4.33;;
5010;SDS011;2524;54.364;10.072;2023-02-21T13:09:20;13.70;;;4.20;;
5010;SDS011;2524;54.364;10.072;2023-02-21T13:14:49;11.83;;;3.40;;
5010;SDS011;2524;54.364;10.072;2023-02-21T13:17:20;7.57;;;2.27;;
5010;SDS011;2524;54.364;10.072;2023-02-21T13:22:21;14.43;;;3.20;;
5010;SDS011;2524;54.364;10.072;2023-02-21T13:32:57;6.83;;;3.13;;
5010;SDS011;2524;54.364;10.072;2023-02-21T13:35:29;15.77;;;3.77;;
5010;SDS011;2524;54.364;10.072;2023-02-21T13:38:06;12.67;;;3.53;;
5010;SDS011;2524;54.364;10.072;2023-02-21T13:43:14;15.70;;;3.83;;
5010;SDS011;2524;54.364;10.072;2023-02-21T13:45:49;7.43;;;2.90;;
5010;SDS011;2524;54.364;10.072;2023-02-21T13:48:24;8.53;;;2.60;;
5010;SDS011;2524;54.364;10.072;2023-02-21T13:50:52;13.47;;;3.97;;
5010;SDS011;2524;54.364;10.072;2023-02-21T13:53:30;8.50;;;2.70;;
5010;SDS011;2524;54.364;10.072;2023-02-21T13:56:19;9.07;;;3.67;;
5010;SDS011;2524;54.364;10.072;2023-02-21T14:02:20;13.10;;;3.80;;
5010;SDS011;2524;54.364;10.072;2023-02-21T14:04:59;11.60;;;3.73;;
5010;SDS011;2524;54.364;10.072;2023-02-21T14:13:16;9.83;;;3.20;;
5010;SDS011;2524;54.364;10.072;2023-02-21T14:15:44;9.57;;;2.70;;
5010;SDS011;2524;54.364;10.072;2023-02-21T14:18:23;14.33;;;3.87;;
5010;SDS011;2524;54.364;10.072;2023-02-21T14:20:52;9.60;;;3.23;;
5010;SDS011;2524;54.364;10.072;2023-02-21T14:23:21;8.57;;;2.70;;
5010;SDS011;2524;54.364;10.072;2023-02-21T14:25:57;15.10;;;3.47;;
5010;SDS011;2524;54.364;10.072;2023-02-21T14:31:13;11.40;;;3.67;;
5010;SDS011;2524;54.364;10.072;2023-02-21T14:33:39;6.90;;;2.53;;
5010;SDS011;2524;54.364;10.072;2023-02-21T14:36:06;7.30;;;2.60;;
5010;SDS011;2524;54.364;10.072;2023-02-21T14:38:39;8.43;;;2.70;;
5010;SDS011;2524;54.364;10.072;2023-02-21T14:44:24;14.33;;;3.40;;
5010;SDS011;2524;54.364;10.072;2023-02-21T14:47:35;10.57;;;3.03;;
5010;SDS011;2524;54.364;10.072;2023-02-21T14:50:29;7.10;;;2.80;;
5010;SDS011;2524;54.364;10.072;2023-02-21T15:01:41;9.20;;;2.60;;
5010;SDS011;2524;54.364;10.072;2023-02-21T15:04:20;10.60;;;2.80;;
5010;SDS011;2524;54.364;10.072;2023-02-21T15:07:06;11.33;;;2.90;;
5010;SDS011;2524;54.364;10.072;2023-02-21T15:09:35;9.80;;;3.07;;
5010;SDS011;2524;54.364;10.072;2023-02-21T15:12:02;7.40;;;2.60;;
5010;SDS011;2524;54.364;10.072;2023-02-21T15:14:45;9.47;;;2.73;;
5010;SDS011;2524;54.364;10.072;2023-02-21T15:17:19;9.17;;;3.30;;
5010;SDS011;2524;54.364;10.072;2023-02-21T15:19:46;14.83;;;4.20;;
5010;SDS011;2524;54.364;10.072;2023-02-21T15:22:26;19.90;;;3.90;;
5010;SDS011;2524;54.364;10.072;2023-02-21T15:25:10;8.67;;;2.70;;
5010;SDS011;2524;54.364;10.072;2023-02-21T15:30:15;14.53;;;4.10;;
5010;SDS011;2524;54.364;10.072;2023-02-21T15:32:41;11.33;;;2.67;;
5010;SDS011;2524;54.364;10.072;2023-02-21T15:35:12;13.97;;;3.97;;
5010;SDS011;2524;54.364;10.072;2023-02-21T15:37:42;9.00;;;2.90;;
5010;SDS011;2524;54.364;10.072;2023-02-21T15:40:17;10.60;;;3.17;;
5010;SDS011;2524;54.364;10.072;2023-02-21T15:42:46;15.73;;;3.43;;
5010;SDS011;2524;54.364;10.072;2023-02-21T15:45:22;8.33;;;2.87;;
5010;SDS011;2524;54.364;10.072;2023-02-21T15:47:53;8.93;;;2.77;;
5010;SDS011;2524;54.364;10.072;2023-02-21T15:52:49;10.87;;;3.00;;
5010;SDS011;2524;54.364;10.072;2023-02-21T15:57:43;3.60;;;2.33;;
5010;SDS011;2524;54.364;10.072;2023-02-21T16:00:26;3.37;;;1.80;;
5010;SDS011;2524;54.364;10.072;2023-02-21T16:05:50;3.87;;;2.13;;
5010;SDS011;2524;54.364;10.072;2023-02-21T16:08:16;6.17;;;2.10;;
5010;SDS011;2524;54.364;10.072;2023-02-21T16:10:42;6.30;;;2.43;;
5010;SDS011;2524;54.364;10.072;2023-02-21T16:13:10;6.90;;;2.00;;
5010;SDS011;2524;54.364;10.072;2023-02-21T16:15:36;8.03;;;2.77;;
5010;SDS011;2524;54.364;10.072;2023-02-21T16:18:08;4.87;;;2.17;;
5010;SDS011;2524;54.364;10.072;2023-02-21T16:20:40;5.67;;;2.00;;
5010;SDS011;2524;54.364;10.072;2023-02-21T16:23:41;4.50;;;2.10;;
5010;SDS011;2524;54.364;10.072;2023-02-21T16:28:34;1.70;;;1.60;;
5010;SDS011;2524;54.364;10.072;2023-02-21T16:31:02;5.30;;;1.77;;
5010;SDS011;2524;54.364;10.072;2023-02-21T16:33:32;11.93;;;3.10;;
5010;SDS011;2524;54.364;10.072;2023-02-21T16:35:59;8.00;;;2.70;;
5010;SDS011;2524;54.364;10.072;2023-02-21T16:38:28;3.20;;;1.73;;
5010;SDS011;2524;54.364;10.072;2023-02-21T16:40:54;3.97;;;1.70;;
5010;SDS011;2524;54.364;10.072;2023-02-21T16:43:24;2.30;;;1.67;;
5010;SDS011;2524;54.364;10.072;2023-02-21T16:45:52;2.00;;;1.60;;
5010;SDS011;2524;54.364;10.072;2023-02-21T16:48:20;6.33;;;2.00;;
5010;SDS011;2524;54.364;10.072;2023-02-21T16:50:52;3.30;;;1.83;;
5010;SDS011;2524;54.364;10.072;2023-02-21T16:53:19;4.00;;;1.43;;
5010;SDS011;2524;54.364;10.072;2023-02-21T16:55:46;4.90;;;1.73;;
5010;SDS011;2524;54.364;10.072;2023-02-21T16:58:20;5.20;;;2.10;;
5010;SDS011;2524;54.364;10.072;2023-02-21T17:00:58;4.33;;;2.00;;
5010;SDS011;2524;54.364;10.072;2023-02-21T17:03:42;4.43;;;1.83;;
5010;SDS011;2524;54.364;10.072;2023-02-21T17:06:19;1.83;;;1.30;;
5010;SDS011;2524;54.364;10.072;2023-02-21T17:08:47;2.90;;;1.50;;
5010;SDS011;2524;54.364;10.072;2023-02-21T17:11:13;1.93;;;1.43;;
5010;SDS011;2524;54.364;10.072;2023-02-21T17:13:39;2.20;;;1.53;;
5010;SDS011;2524;54.364;10.072;2023-02-21T17:16:05;5.23;;;2.20;;
5010;SDS011;2524;54.364;10.072;2023-02-21T17:18:31;3.40;;;1.90;;
5010;SDS011;2524;54.364;10.072;2023-02-21T17:20:57;5.57;;;2.50;;
5010;SDS011;2524;54.364;10.072;2023-02-21T17:23:24;4.80;;;2.43;;
5010;SDS011;2524;54.364;10.072;2023-02-21T17:25:50;5.17;;;2.30;;
5010;SDS011;2524;54.364;10.072;2023-02-21T17:28:16;3.70;;;2.10;;